sensor_id;sensor_type;location;lat;lon;timestamp;temperature;humidity
51783;DHT22;37845;53.196;5.638;2022-09-09T00:06:23;15.70;99.90
51783;DHT22;37845;53.196;5.638;2022-09-09T00:09:01;15.70;99.90
51783;DHT22;37845;53.196;5.638;2022-09-09T00:11:29;15.60;99.90
51783;DHT22;37845;53.196;5.638;2022-09-09T00:13:57;15.60;99.90
51783;DHT22;37845;53.196;5.638;2022-09-09T00:16:24;15.60;99.90
51783;DHT22;37845;53.196;5.638;2022-09-09T00:21:44;15.70;99.90
51783;DHT22;37845;53.196;5.638;2022-09-09T00:24:32;15.70;99.90
51783;DHT22;37845;53.196;5.638;2022-09-09T00:27:01;15.70;99.90
51783;DHT22;37845;53.196;5.638;2022-09-09T00:29:43;15.70;99.90
51783;DHT22;37845;53.196;5.638;2022-09-09T00:32:13;15.70;99.90
51783;DHT22;37845;53.196;5.638;2022-09-09T00:34:42;15.60;99.90
51783;DHT22;37845;53.196;5.638;2022-09-09T00:37:11;15.60;99.90
51783;DHT22;37845;53.196;5.638;2022-09-09T00:39:44;15.70;99.90
51783;DHT22;37845;53.196;5.638;2022-09-09T00:42:14;15.70;99.90
51783;DHT22;37845;53.196;5.638;2022-09-09T00:53:18;15.60;99.90
51783;DHT22;37845;53.196;5.638;2022-09-09T00:56:08;15.50;99.90
51783;DHT22;37845;53.196;5.638;2022-09-09T00:58:37;15.50;99.90
51783;DHT22;37845;53.196;5.638;2022-09-09T01:01:04;15.10;99.90
51783;DHT22;37845;53.196;5.638;2022-09-09T01:03:37;15.50;99.90
51783;DHT22;37845;53.196;5.638;2022-09-09T01:16:56;15.50;99.90
51783;DHT22;37845;53.196;5.638;2022-09-09T01:19:35;15.50;99.90
51783;DHT22;37845;53.196;5.638;2022-09-09T01:25:06;15.60;99.90
51783;DHT22;37845;53.196;5.638;2022-09-09T01:27:30;15.50;99.90
51783;DHT22;37845;53.196;5.638;2022-09-09T01:29:57;15.50;99.90
51783;DHT22;37845;53.196;5.638;2022-09-09T01:35:27;15.40;99.90
51783;DHT22;37845;53.196;5.638;2022-09-09T01:37:55;15.50;99.90
51783;DHT22;37845;53.196;5.638;2022-09-09T01:40:21;15.50;99.90
51783;DHT22;37845;53.196;5.638;2022-09-09T01:42:47;15.40;99.90
51783;DHT22;37845;53.196;5.638;2022-09-09T01:45:18;15.40;99.90
51783;DHT22;37845;53.196;5.638;2022-09-09T01:47:44;15.50;99.90
51783;DHT22;37845;53.196;5.638;2022-09-09T01:50:10;15.50;99.90
51783;DHT22;37845;53.196;5.638;2022-09-09T01:52:38;15.40;99.90
51783;DHT22;37845;53.196;5.638;2022-09-09T01:55:09;15.40;99.90
51783;DHT22;37845;53.196;5.638;2022-09-09T02:00:16;15.40;99.90
51783;DHT22;37845;53.196;5.638;2022-09-09T02:05:38;15.40;99.90
51783;DHT22;37845;53.196;5.638;2022-09-09T02:08:10;15.30;99.90
51783;DHT22;37845;53.196;5.638;2022-09-09T02:10:42;15.30;99.90
51783;DHT22;37845;53.196;5.638;2022-09-09T02:13:11;15.30;99.90
51783;DHT22;37845;53.196;5.638;2022-09-09T02:18:20;15.80;99.90
51783;DHT22;37845;53.196;5.638;2022-09-09T02:20:48;15.30;99.90
51783;DHT22;37845;53.196;5.638;2022-09-09T02:23:14;15.30;99.90
51783;DHT22;37845;53.196;5.638;2022-09-09T02:25:43;15.30;99.90
51783;DHT22;37845;53.196;5.638;2022-09-09T02:28:09;15.30;99.90
51783;DHT22;37845;53.196;5.638;2022-09-09T02:30:35;15.20;99.90
51783;DHT22;37845;53.196;5.638;2022-09-09T02:33:03;15.20;99.90
51783;DHT22;37845;53.196;5.638;2022-09-09T02:35:29;15.20;99.90
51783;DHT22;37845;53.196;5.638;2022-09-09T02:37:56;15.20;99.90
51783;DHT22;37845;53.196;5.638;2022-09-09T02:40:24;15.20;99.90
51783;DHT22;37845;53.196;5.638;2022-09-09T02:42:50;15.20;99.90
51783;DHT22;37845;53.196;5.638;2022-09-09T02:45:16;15.20;99.90
51783;DHT22;37845;53.196;5.638;2022-09-09T02:50:31;15.10;99.90
51783;DHT22;37845;53.196;5.638;2022-09-09T02:58:02;15.10;99.90
51783;DHT22;37845;53.196;5.638;2022-09-09T03:00:31;15.10;99.90
51783;DHT22;37845;53.196;5.638;2022-09-09T03:02:57;15.10;99.90
51783;DHT22;37845;53.196;5.638;2022-09-09T03:05:23;15.10;99.90
51783;DHT22;37845;53.196;5.638;2022-09-09T03:07:49;15.10;99.90
51783;DHT22;37845;53.196;5.638;2022-09-09T03:10:16;15.10;99.90
51783;DHT22;37845;53.196;5.638;2022-09-09T03:12:42;15.10;99.90
51783;DHT22;37845;53.196;5.638;2022-09-09T03:15:08;15.10;99.90
51783;DHT22;37845;53.196;5.638;2022-09-09T03:17:35;15.10;99.90
51783;DHT22;37845;53.196;5.638;2022-09-09T03:20:04;15.10;99.90
51783;DHT22;37845;53.196;5.638;2022-09-09T03:22:30;15.20;99.90
51783;DHT22;37845;53.196;5.638;2022-09-09T03:24:55;15.20;99.90
51783;DHT22;37845;53.196;5.638;2022-09-09T03:27:23;15.20;99.90
51783;DHT22;37845;53.196;5.638;2022-09-09T03:29:49;15.30;99.90
51783;DHT22;37845;53.196;5.638;2022-09-09T03:32:18;15.30;99.90
51783;DHT22;37845;53.196;5.638;2022-09-09T03:34:43;15.30;99.90
51783;DHT22;37845;53.196;5.638;2022-09-09T03:37:09;15.40;99.90
51783;DHT22;37845;53.196;5.638;2022-09-09T03:39:38;15.40;99.90
51783;DHT22;37845;53.196;5.638;2022-09-09T03:42:03;15.40;99.90
51783;DHT22;37845;53.196;5.638;2022-09-09T03:44:29;15.40;99.90
51783;DHT22;37845;53.196;5.638;2022-09-09T03:46:55;15.40;99.90
51783;DHT22;37845;53.196;5.638;2022-09-09T03:49:24;15.40;99.90
51783;DHT22;37845;53.196;5.638;2022-09-09T03:51:51;15.40;99.90
51783;DHT22;37845;53.196;5.638;2022-09-09T03:54:17;15.40;99.90
51783;DHT22;37845;53.196;5.638;2022-09-09T03:56:42;15.40;99.90
51783;DHT22;37845;53.196;5.638;2022-09-09T03:59:14;15.40;99.90
51783;DHT22;37845;53.196;5.638;2022-09-09T04:01:40;15.40;99.90
51783;DHT22;37845;53.196;5.638;2022-09-09T04:04:05;15.40;99.90
51783;DHT22;37845;53.196;5.638;2022-09-09T04:06:31;15.40;99.90
51783;DHT22;37845;53.196;5.638;2022-09-09T04:08:56;15.40;99.90
51783;DHT22;37845;53.196;5.638;2022-09-09T04:11:22;15.30;99.90
51783;DHT22;37845;53.196;5.638;2022-09-09T04:13:47;15.30;99.90
51783;DHT22;37845;53.196;5.638;2022-09-09T04:16:14;15.30;99.90
51783;DHT22;37845;53.196;5.638;2022-09-09T04:18:45;15.30;99.90
51783;DHT22;37845;53.196;5.638;2022-09-09T04:21:11;15.20;99.90
51783;DHT22;37845;53.196;5.638;2022-09-09T04:23:37;15.20;99.90
51783;DHT22;37845;53.196;5.638;2022-09-09T04:26:03;15.20;99.90
51783;DHT22;37845;53.196;5.638;2022-09-09T04:28:30;15.20;99.90
51783;DHT22;37845;53.196;5.638;2022-09-09T04:30:56;15.10;99.90
51783;DHT22;37845;53.196;5.638;2022-09-09T04:33:23;15.10;99.90
51783;DHT22;37845;53.196;5.638;2022-09-09T04:35:51;15.10;99.90
51783;DHT22;37845;53.196;5.638;2022-09-09T04:38:19;15.10;99.90
51783;DHT22;37845;53.196;5.638;2022-09-09T04:40:48;15.00;99.90
51783;DHT22;37845;53.196;5.638;2022-09-09T04:43:14;15.10;99.90
51783;DHT22;37845;53.196;5.638;2022-09-09T04:45:40;15.10;99.90
51783;DHT22;37845;53.196;5.638;2022-09-09T04:48:06;15.10;99.90
51783;DHT22;37845;53.196;5.638;2022-09-09T04:50:32;15.10;99.90
51783;DHT22;37845;53.196;5.638;2022-09-09T04:53:01;15.00;99.90
51783;DHT22;37845;53.196;5.638;2022-09-09T04:55:27;15.00;99.90
51783;DHT22;37845;53.196;5.638;2022-09-09T04:57:52;15.00;99.90
51783;DHT22;37845;53.196;5.638;2022-09-09T05:00:19;14.80;99.90
51783;DHT22;37845;53.196;5.638;2022-09-09T05:02:44;15.00;99.90
51783;DHT22;37845;53.196;5.638;2022-09-09T05:05:10;15.00;99.90
51783;DHT22;37845;53.196;5.638;2022-09-09T05:07:36;14.90;99.90
51783;DHT22;37845;53.196;5.638;2022-09-09T05:10:02;15.00;99.90
51783;DHT22;37845;53.196;5.638;2022-09-09T05:12:31;15.00;99.90
51783;DHT22;37845;53.196;5.638;2022-09-09T05:14:57;14.90;99.90
51783;DHT22;37845;53.196;5.638;2022-09-09T05:17:23;15.00;99.90
51783;DHT22;37845;53.196;5.638;2022-09-09T05:19:48;15.00;99.90
51783;DHT22;37845;53.196;5.638;2022-09-09T05:22:18;15.50;99.90
51783;DHT22;37845;53.196;5.638;2022-09-09T05:24:43;14.90;99.90
51783;DHT22;37845;53.196;5.638;2022-09-09T05:27:09;15.00;99.90
51783;DHT22;37845;53.196;5.638;2022-09-09T05:29:40;15.00;99.90
51783;DHT22;37845;53.196;5.638;2022-09-09T05:32:08;14.90;99.90
51783;DHT22;37845;53.196;5.638;2022-09-09T05:34:35;14.90;99.90
51783;DHT22;37845;53.196;5.638;2022-09-09T05:37:00;15.00;99.90
51783;DHT22;37845;53.196;5.638;2022-09-09T05:39:26;14.90;99.90
51783;DHT22;37845;53.196;5.638;2022-09-09T05:41:51;15.00;99.90
51783;DHT22;37845;53.196;5.638;2022-09-09T05:44:17;14.90;99.90
51783;DHT22;37845;53.196;5.638;2022-09-09T05:46:44;14.90;99.90
51783;DHT22;37845;53.196;5.638;2022-09-09T05:49:10;14.90;99.90
51783;DHT22;37845;53.196;5.638;2022-09-09T05:51:35;14.90;99.90
51783;DHT22;37845;53.196;5.638;2022-09-09T05:54:01;14.90;99.90
51783;DHT22;37845;53.196;5.638;2022-09-09T05:56:27;14.90;99.90
51783;DHT22;37845;53.196;5.638;2022-09-09T05:58:54;14.90;99.90
51783;DHT22;37845;53.196;5.638;2022-09-09T06:01:21;15.00;99.90
51783;DHT22;37845;53.196;5.638;2022-09-09T06:03:47;15.00;99.90
51783;DHT22;37845;53.196;5.638;2022-09-09T06:06:14;15.00;99.90
51783;DHT22;37845;53.196;5.638;2022-09-09T06:08:41;15.00;99.90
51783;DHT22;37845;53.196;5.638;2022-09-09T06:11:10;15.10;99.90
51783;DHT22;37845;53.196;5.638;2022-09-09T06:13:37;15.10;99.90
51783;DHT22;37845;53.196;5.638;2022-09-09T06:16:15;15.10;99.90
51783;DHT22;37845;53.196;5.638;2022-09-09T06:18:41;15.20;99.90
51783;DHT22;37845;53.196;5.638;2022-09-09T06:21:17;15.10;99.90
51783;DHT22;37845;53.196;5.638;2022-09-09T06:23:44;15.10;99.90
51783;DHT22;37845;53.196;5.638;2022-09-09T06:26:18;15.10;99.90
51783;DHT22;37845;53.196;5.638;2022-09-09T06:28:54;15.20;99.90
51783;DHT22;37845;53.196;5.638;2022-09-09T06:31:21;15.20;99.90
51783;DHT22;37845;53.196;5.638;2022-09-09T06:33:47;15.10;99.90
51783;DHT22;37845;53.196;5.638;2022-09-09T06:36:14;15.20;99.90
51783;DHT22;37845;53.196;5.638;2022-09-09T06:38:41;15.20;99.90
51783;DHT22;37845;53.196;5.638;2022-09-09T06:41:07;15.30;99.90
51783;DHT22;37845;53.196;5.638;2022-09-09T06:43:33;15.20;99.90
51783;DHT22;37845;53.196;5.638;2022-09-09T06:46:04;15.30;99.90
51783;DHT22;37845;53.196;5.638;2022-09-09T06:48:30;15.30;99.90
51783;DHT22;37845;53.196;5.638;2022-09-09T06:51:09;15.30;99.90
51783;DHT22;37845;53.196;5.638;2022-09-09T06:53:39;15.20;99.90
51783;DHT22;37845;53.196;5.638;2022-09-09T06:56:22;15.30;99.90
51783;DHT22;37845;53.196;5.638;2022-09-09T06:58:49;15.30;99.90
51783;DHT22;37845;53.196;5.638;2022-09-09T07:01:25;15.30;99.90
51783;DHT22;37845;53.196;5.638;2022-09-09T07:03:51;15.30;99.90
51783;DHT22;37845;53.196;5.638;2022-09-09T07:06:18;15.30;99.90
51783;DHT22;37845;53.196;5.638;2022-09-09T07:08:48;15.30;99.90
51783;DHT22;37845;53.196;5.638;2022-09-09T07:11:14;15.30;99.90
51783;DHT22;37845;53.196;5.638;2022-09-09T07:13:40;15.30;99.90
51783;DHT22;37845;53.196;5.638;2022-09-09T07:16:06;15.30;99.90
51783;DHT22;37845;53.196;5.638;2022-09-09T07:18:32;15.40;99.90
51783;DHT22;37845;53.196;5.638;2022-09-09T07:21:03;15.40;99.90
51783;DHT22;37845;53.196;5.638;2022-09-09T07:23:30;15.40;99.90
51783;DHT22;37845;53.196;5.638;2022-09-09T07:25:56;15.50;99.90
51783;DHT22;37845;53.196;5.638;2022-09-09T07:28:22;15.50;99.90
51783;DHT22;37845;53.196;5.638;2022-09-09T07:31:01;15.50;99.90
51783;DHT22;37845;53.196;5.638;2022-09-09T07:33:30;15.50;99.90
51783;DHT22;37845;53.196;5.638;2022-09-09T07:36:06;15.50;99.90
51783;DHT22;37845;53.196;5.638;2022-09-09T07:38:38;15.60;99.90
51783;DHT22;37845;53.196;5.638;2022-09-09T07:41:05;15.60;99.90
51783;DHT22;37845;53.196;5.638;2022-09-09T07:43:32;15.70;99.90
51783;DHT22;37845;53.196;5.638;2022-09-09T07:45:58;15.70;99.90
51783;DHT22;37845;53.196;5.638;2022-09-09T07:48:25;15.80;99.90
51783;DHT22;37845;53.196;5.638;2022-09-09T07:50:51;15.80;99.90
51783;DHT22;37845;53.196;5.638;2022-09-09T07:53:16;15.90;99.90
51783;DHT22;37845;53.196;5.638;2022-09-09T07:55:42;15.90;99.90
51783;DHT22;37845;53.196;5.638;2022-09-09T07:58:08;16.00;99.90
51783;DHT22;37845;53.196;5.638;2022-09-09T08:00:34;16.10;99.90
51783;DHT22;37845;53.196;5.638;2022-09-09T08:02:59;16.20;99.90
51783;DHT22;37845;53.196;5.638;2022-09-09T08:05:27;16.20;99.90
51783;DHT22;37845;53.196;5.638;2022-09-09T08:07:52;16.30;99.90
51783;DHT22;37845;53.196;5.638;2022-09-09T08:10:18;16.80;99.90
51783;DHT22;37845;53.196;5.638;2022-09-09T08:12:44;16.40;99.90
51783;DHT22;37845;53.196;5.638;2022-09-09T08:15:10;16.40;99.90
51783;DHT22;37845;53.196;5.638;2022-09-09T08:17:36;16.50;99.90
51783;DHT22;37845;53.196;5.638;2022-09-09T08:20:03;16.60;99.90
51783;DHT22;37845;53.196;5.638;2022-09-09T08:22:31;16.60;99.90
51783;DHT22;37845;53.196;5.638;2022-09-09T08:24:57;16.60;99.90
51783;DHT22;37845;53.196;5.638;2022-09-09T08:27:23;16.60;99.90
51783;DHT22;37845;53.196;5.638;2022-09-09T08:29:49;17.00;99.90
51783;DHT22;37845;53.196;5.638;2022-09-09T08:32:15;16.80;99.90
51783;DHT22;37845;53.196;5.638;2022-09-09T08:34:41;16.90;99.90
51783;DHT22;37845;53.196;5.638;2022-09-09T08:37:07;17.00;99.90
51783;DHT22;37845;53.196;5.638;2022-09-09T08:39:32;17.10;99.90
51783;DHT22;37845;53.196;5.638;2022-09-09T08:57:52;17.20;99.90
51783;DHT22;37845;53.196;5.638;2022-09-09T09:00:19;17.10;99.90
51783;DHT22;37845;53.196;5.638;2022-09-09T09:02:58;17.10;99.90
51783;DHT22;37845;53.196;5.638;2022-09-09T09:08:18;17.20;99.90
51783;DHT22;37845;53.196;5.638;2022-09-09T09:10:48;17.10;99.90
51783;DHT22;37845;53.196;5.638;2022-09-09T09:13:30;17.10;99.90
51783;DHT22;37845;53.196;5.638;2022-09-09T09:15:58;17.10;99.90
51783;DHT22;37845;53.196;5.638;2022-09-09T09:18:25;17.10;99.90
51783;DHT22;37845;53.196;5.638;2022-09-09T09:20:54;17.20;99.90
51783;DHT22;37845;53.196;5.638;2022-09-09T09:23:25;17.20;99.90
51783;DHT22;37845;53.196;5.638;2022-09-09T09:25:56;17.30;99.90
51783;DHT22;37845;53.196;5.638;2022-09-09T09:28:25;17.40;99.90
51783;DHT22;37845;53.196;5.638;2022-09-09T09:30:54;17.40;99.90
51783;DHT22;37845;53.196;5.638;2022-09-09T09:35:55;17.60;99.90
51783;DHT22;37845;53.196;5.638;2022-09-09T09:38:22;17.60;99.90
51783;DHT22;37845;53.196;5.638;2022-09-09T09:40:53;17.70;99.90
51783;DHT22;37845;53.196;5.638;2022-09-09T09:43:31;17.70;99.90
51783;DHT22;37845;53.196;5.638;2022-09-09T09:45:57;17.70;99.90
51783;DHT22;37845;53.196;5.638;2022-09-09T09:48:24;17.70;99.90
51783;DHT22;37845;53.196;5.638;2022-09-09T09:51:00;17.80;99.90
51783;DHT22;37845;53.196;5.638;2022-09-09T09:53:28;17.90;99.90
51783;DHT22;37845;53.196;5.638;2022-09-09T09:55:56;17.80;99.90
51783;DHT22;37845;53.196;5.638;2022-09-09T09:59:18;17.90;99.90
51783;DHT22;37845;53.196;5.638;2022-09-09T10:01:19;17.90;99.90
51783;DHT22;37845;53.196;5.638;2022-09-09T10:03:49;17.90;99.90
51783;DHT22;37845;53.196;5.638;2022-09-09T10:06:29;18.00;99.90
51783;DHT22;37845;53.196;5.638;2022-09-09T10:08:55;18.10;99.90
51783;DHT22;37845;53.196;5.638;2022-09-09T10:19:26;18.70;99.90
51783;DHT22;37845;53.196;5.638;2022-09-09T10:25:24;18.80;99.90
51783;DHT22;37845;53.196;5.638;2022-09-09T10:27:53;19.20;99.90
51783;DHT22;37845;53.196;5.638;2022-09-09T10:35:49;19.00;99.90
51783;DHT22;37845;53.196;5.638;2022-09-09T10:38:18;19.10;99.90
51783;DHT22;37845;53.196;5.638;2022-09-09T10:46:15;19.10;99.90
51783;DHT22;37845;53.196;5.638;2022-09-09T10:51:16;19.30;99.90
51783;DHT22;37845;53.196;5.638;2022-09-09T10:56:15;19.40;99.90
51783;DHT22;37845;53.196;5.638;2022-09-09T10:58:44;19.40;99.90
51783;DHT22;37845;53.196;5.638;2022-09-09T11:01:19;19.40;99.90
51783;DHT22;37845;53.196;5.638;2022-09-09T11:03:47;19.30;99.90
51783;DHT22;37845;53.196;5.638;2022-09-09T11:06:16;19.30;99.90
51783;DHT22;37845;53.196;5.638;2022-09-09T11:08:43;19.20;99.90
51783;DHT22;37845;53.196;5.638;2022-09-09T11:16:30;19.10;99.90
51783;DHT22;37845;53.196;5.638;2022-09-09T11:19:15;19.00;99.90
51783;DHT22;37845;53.196;5.638;2022-09-09T11:21:46;19.00;99.90
51783;DHT22;37845;53.196;5.638;2022-09-09T11:26:55;18.80;99.90
51783;DHT22;37845;53.196;5.638;2022-09-09T11:29:28;18.80;99.90
51783;DHT22;37845;53.196;5.638;2022-09-09T11:37:53;18.70;99.90
51783;DHT22;37845;53.196;5.638;2022-09-09T11:40:23;18.70;99.90
51783;DHT22;37845;53.196;5.638;2022-09-09T11:43:04;18.80;99.90
51783;DHT22;37845;53.196;5.638;2022-09-09T11:45:31;18.90;99.90
51783;DHT22;37845;53.196;5.638;2022-09-09T11:47:59;19.00;99.90
51783;DHT22;37845;53.196;5.638;2022-09-09T11:50:35;19.00;99.90
51783;DHT22;37845;53.196;5.638;2022-09-09T11:53:20;19.00;99.90
51783;DHT22;37845;53.196;5.638;2022-09-09T11:55:48;19.00;99.90
51783;DHT22;37845;53.196;5.638;2022-09-09T11:58:36;19.00;99.90
51783;DHT22;37845;53.196;5.638;2022-09-09T12:01:12;19.00;99.90
51783;DHT22;37845;53.196;5.638;2022-09-09T12:08:36;19.10;99.90
51783;DHT22;37845;53.196;5.638;2022-09-09T12:11:02;19.10;99.90
51783;DHT22;37845;53.196;5.638;2022-09-09T12:13:31;19.10;99.90
51783;DHT22;37845;53.196;5.638;2022-09-09T12:15:57;19.10;99.90
51783;DHT22;37845;53.196;5.638;2022-09-09T12:18:24;19.00;99.90
51783;DHT22;37845;53.196;5.638;2022-09-09T12:23:40;18.90;99.90
51783;DHT22;37845;53.196;5.638;2022-09-09T12:28:54;18.80;99.90
51783;DHT22;37845;53.196;5.638;2022-09-09T12:33:51;18.90;99.90
51783;DHT22;37845;53.196;5.638;2022-09-09T12:36:22;19.00;99.90
51783;DHT22;37845;53.196;5.638;2022-09-09T12:38:49;19.00;99.90
51783;DHT22;37845;53.196;5.638;2022-09-09T12:41:24;19.00;99.90
51783;DHT22;37845;53.196;5.638;2022-09-09T12:43:50;19.00;99.90
51783;DHT22;37845;53.196;5.638;2022-09-09T12:46:32;19.10;99.90
51783;DHT22;37845;53.196;5.638;2022-09-09T12:49:02;19.10;99.90
51783;DHT22;37845;53.196;5.638;2022-09-09T12:51:28;19.10;99.90
51783;DHT22;37845;53.196;5.638;2022-09-09T12:53:54;19.10;99.90
51783;DHT22;37845;53.196;5.638;2022-09-09T12:56:21;19.20;99.90
51783;DHT22;37845;53.196;5.638;2022-09-09T12:58:48;19.30;99.90
51783;DHT22;37845;53.196;5.638;2022-09-09T13:01:24;19.40;99.90
51783;DHT22;37845;53.196;5.638;2022-09-09T13:03:50;19.40;99.90
51783;DHT22;37845;53.196;5.638;2022-09-09T13:06:20;19.50;99.90
51783;DHT22;37845;53.196;5.638;2022-09-09T13:08:48;19.50;99.90
51783;DHT22;37845;53.196;5.638;2022-09-09T13:11:15;19.50;99.90
51783;DHT22;37845;53.196;5.638;2022-09-09T13:13:42;19.50;99.90
51783;DHT22;37845;53.196;5.638;2022-09-09T13:16:28;19.50;99.90
51783;DHT22;37845;53.196;5.638;2022-09-09T13:18:57;19.70;99.90
51783;DHT22;37845;53.196;5.638;2022-09-09T13:21:31;19.40;99.90
51783;DHT22;37845;53.196;5.638;2022-09-09T13:23:56;19.40;99.90
51783;DHT22;37845;53.196;5.638;2022-09-09T13:26:25;19.40;99.90
51783;DHT22;37845;53.196;5.638;2022-09-09T13:28:52;19.40;99.90
51783;DHT22;37845;53.196;5.638;2022-09-09T13:31:27;19.30;99.90
51783;DHT22;37845;53.196;5.638;2022-09-09T13:33:54;19.20;99.90
51783;DHT22;37845;53.196;5.638;2022-09-09T13:36:29;19.10;99.90
51783;DHT22;37845;53.196;5.638;2022-09-09T13:38:59;19.00;99.90
51783;DHT22;37845;53.196;5.638;2022-09-09T13:41:28;19.00;99.90
51783;DHT22;37845;53.196;5.638;2022-09-09T13:43:55;19.20;99.90
51783;DHT22;37845;53.196;5.638;2022-09-09T13:46:35;19.30;99.90
51783;DHT22;37845;53.196;5.638;2022-09-09T13:54:05;19.60;99.90
51783;DHT22;37845;53.196;5.638;2022-09-09T13:56:34;19.60;99.90
51783;DHT22;37845;53.196;5.638;2022-09-09T13:59:01;19.70;99.90
51783;DHT22;37845;53.196;5.638;2022-09-09T14:01:27;19.70;99.90
51783;DHT22;37845;53.196;5.638;2022-09-09T14:03:53;19.70;99.90
51783;DHT22;37845;53.196;5.638;2022-09-09T14:06:18;19.70;99.90
51783;DHT22;37845;53.196;5.638;2022-09-09T14:08:44;19.80;99.90
51783;DHT22;37845;53.196;5.638;2022-09-09T14:11:12;19.70;99.90
51783;DHT22;37845;53.196;5.638;2022-09-09T14:13:37;19.70;99.90
51783;DHT22;37845;53.196;5.638;2022-09-09T14:16:03;19.80;99.90
51783;DHT22;37845;53.196;5.638;2022-09-09T14:18:29;19.80;99.90
51783;DHT22;37845;53.196;5.638;2022-09-09T14:20:54;19.70;99.90
51783;DHT22;37845;53.196;5.638;2022-09-09T14:23:20;19.80;99.90
51783;DHT22;37845;53.196;5.638;2022-09-09T14:25:47;19.80;99.90
51783;DHT22;37845;53.196;5.638;2022-09-09T14:28:13;19.80;99.90
51783;DHT22;37845;53.196;5.638;2022-09-09T14:30:40;19.80;99.90
51783;DHT22;37845;53.196;5.638;2022-09-09T14:33:06;19.70;99.90
51783;DHT22;37845;53.196;5.638;2022-09-09T14:35:38;19.70;99.90
51783;DHT22;37845;53.196;5.638;2022-09-09T14:38:04;19.70;99.90
51783;DHT22;37845;53.196;5.638;2022-09-09T14:40:30;19.70;99.90
51783;DHT22;37845;53.196;5.638;2022-09-09T14:42:56;19.60;99.90
51783;DHT22;37845;53.196;5.638;2022-09-09T14:45:25;19.60;99.90
51783;DHT22;37845;53.196;5.638;2022-09-09T14:47:51;19.50;99.90
51783;DHT22;37845;53.196;5.638;2022-09-09T14:50:18;19.30;99.90
51783;DHT22;37845;53.196;5.638;2022-09-09T14:52:44;19.20;99.90
51783;DHT22;37845;53.196;5.638;2022-09-09T14:55:09;19.10;99.90
51783;DHT22;37845;53.196;5.638;2022-09-09T14:57:36;19.00;99.90
51783;DHT22;37845;53.196;5.638;2022-09-09T15:00:02;18.80;99.90
51783;DHT22;37845;53.196;5.638;2022-09-09T15:02:29;18.80;99.90
51783;DHT22;37845;53.196;5.638;2022-09-09T15:04:55;18.80;99.90
51783;DHT22;37845;53.196;5.638;2022-09-09T15:07:22;18.80;99.90
51783;DHT22;37845;53.196;5.638;2022-09-09T15:09:48;18.80;99.90
51783;DHT22;37845;53.196;5.638;2022-09-09T15:12:14;18.90;99.90
51783;DHT22;37845;53.196;5.638;2022-09-09T15:14:39;19.00;99.90
51783;DHT22;37845;53.196;5.638;2022-09-09T15:17:05;19.00;99.90
51783;DHT22;37845;53.196;5.638;2022-09-09T15:19:31;19.00;99.90
51783;DHT22;37845;53.196;5.638;2022-09-09T15:21:57;19.10;99.90
51783;DHT22;37845;53.196;5.638;2022-09-09T15:24:34;19.20;99.90
51783;DHT22;37845;53.196;5.638;2022-09-09T15:27:00;19.40;99.90
51783;DHT22;37845;53.196;5.638;2022-09-09T15:29:26;19.40;99.90
51783;DHT22;37845;53.196;5.638;2022-09-09T15:31:55;19.50;99.90
51783;DHT22;37845;53.196;5.638;2022-09-09T15:34:23;19.60;99.90
51783;DHT22;37845;53.196;5.638;2022-09-09T15:36:50;19.50;99.90
51783;DHT22;37845;53.196;5.638;2022-09-09T15:39:18;19.50;99.90
51783;DHT22;37845;53.196;5.638;2022-09-09T15:41:44;19.50;99.90
51783;DHT22;37845;53.196;5.638;2022-09-09T15:44:10;19.60;99.90
51783;DHT22;37845;53.196;5.638;2022-09-09T15:46:38;19.60;99.90
51783;DHT22;37845;53.196;5.638;2022-09-09T15:49:06;19.70;99.90
51783;DHT22;37845;53.196;5.638;2022-09-09T15:51:34;19.70;99.90
51783;DHT22;37845;53.196;5.638;2022-09-09T15:54:00;19.70;99.90
51783;DHT22;37845;53.196;5.638;2022-09-09T15:56:26;19.60;99.90
51783;DHT22;37845;53.196;5.638;2022-09-09T15:58:52;19.60;99.90
51783;DHT22;37845;53.196;5.638;2022-09-09T16:01:21;19.50;99.90
51783;DHT22;37845;53.196;5.638;2022-09-09T16:03:46;19.50;99.90
51783;DHT22;37845;53.196;5.638;2022-09-09T16:06:13;19.40;99.90
51783;DHT22;37845;53.196;5.638;2022-09-09T16:08:40;19.30;99.90
51783;DHT22;37845;53.196;5.638;2022-09-09T16:13:38;19.20;99.90
51783;DHT22;37845;53.196;5.638;2022-09-09T16:16:08;19.10;99.90
51783;DHT22;37845;53.196;5.638;2022-09-09T16:18:39;19.00;99.90
51783;DHT22;37845;53.196;5.638;2022-09-09T16:21:05;18.90;99.90
51783;DHT22;37845;53.196;5.638;2022-09-09T16:23:31;18.60;99.90
51783;DHT22;37845;53.196;5.638;2022-09-09T16:25:57;18.40;99.90
51783;DHT22;37845;53.196;5.638;2022-09-09T16:28:23;18.30;99.90
51783;DHT22;37845;53.196;5.638;2022-09-09T16:30:52;18.20;99.90
51783;DHT22;37845;53.196;5.638;2022-09-09T16:33:18;18.20;99.90
51783;DHT22;37845;53.196;5.638;2022-09-09T16:35:44;18.10;99.90
51783;DHT22;37845;53.196;5.638;2022-09-09T16:38:10;18.10;99.90
51783;DHT22;37845;53.196;5.638;2022-09-09T16:40:39;18.10;99.90
51783;DHT22;37845;53.196;5.638;2022-09-09T16:43:07;18.10;99.90
51783;DHT22;37845;53.196;5.638;2022-09-09T16:45:32;18.10;99.90
51783;DHT22;37845;53.196;5.638;2022-09-09T16:48:01;18.10;99.90
51783;DHT22;37845;53.196;5.638;2022-09-09T16:50:26;18.20;99.90
51783;DHT22;37845;53.196;5.638;2022-09-09T16:52:52;18.20;99.90
51783;DHT22;37845;53.196;5.638;2022-09-09T16:55:18;18.30;99.90
51783;DHT22;37845;53.196;5.638;2022-09-09T16:57:46;18.30;99.90
51783;DHT22;37845;53.196;5.638;2022-09-09T17:00:14;18.30;99.90
51783;DHT22;37845;53.196;5.638;2022-09-09T17:02:43;18.40;99.90
51783;DHT22;37845;53.196;5.638;2022-09-09T17:05:10;18.50;99.90
51783;DHT22;37845;53.196;5.638;2022-09-09T17:07:37;18.50;99.90
51783;DHT22;37845;53.196;5.638;2022-09-09T17:10:04;18.50;99.90
51783;DHT22;37845;53.196;5.638;2022-09-09T17:12:31;18.50;99.90
51783;DHT22;37845;53.196;5.638;2022-09-09T17:14:56;18.40;99.90
51783;DHT22;37845;53.196;5.638;2022-09-09T17:17:24;18.40;99.90
51783;DHT22;37845;53.196;5.638;2022-09-09T17:19:49;18.40;99.90
51783;DHT22;37845;53.196;5.638;2022-09-09T17:22:15;18.40;99.90
51783;DHT22;37845;53.196;5.638;2022-09-09T17:24:41;18.40;99.90
51783;DHT22;37845;53.196;5.638;2022-09-09T17:27:07;18.40;99.90
51783;DHT22;37845;53.196;5.638;2022-09-09T17:29:32;18.40;99.90
51783;DHT22;37845;53.196;5.638;2022-09-09T17:32:01;18.40;99.90
51783;DHT22;37845;53.196;5.638;2022-09-09T17:34:27;18.40;99.90
51783;DHT22;37845;53.196;5.638;2022-09-09T17:36:53;18.40;99.90
51783;DHT22;37845;53.196;5.638;2022-09-09T17:39:18;18.30;99.90
51783;DHT22;37845;53.196;5.638;2022-09-09T17:41:44;18.40;99.90
51783;DHT22;37845;53.196;5.638;2022-09-09T17:44:10;18.30;99.90
51783;DHT22;37845;53.196;5.638;2022-09-09T17:46:37;17.90;99.90
51783;DHT22;37845;53.196;5.638;2022-09-09T17:49:06;18.30;99.90